sensor_id;sensor_type;location;lat;lon;timestamp;P1;durP1;ratioP1;P2;durP2;ratioP2
55090;SDS011;40985;53.180;5.800;2024-03-06T00:02:07;20.73;;;16.30;;
55090;SDS011;40985;53.180;5.800;2024-03-06T00:04:34;23.02;;;16.25;;
55090;SDS011;40985;53.180;5.800;2024-03-06T00:07:00;21.67;;;16.10;;
55090;SDS011;40985;53.180;5.800;2024-03-06T00:09:26;21.83;;;16.33;;
55090;SDS011;40985;53.180;5.800;2024-03-06T00:11:52;21.33;;;15.32;;
55090;SDS011;40985;53.180;5.800;2024-03-06T00:14:18;20.70;;;15.90;;
55090;SDS011;40985;53.180;5.800;2024-03-06T00:16:46;21.92;;;15.63;;
55090;SDS011;40985;53.180;5.800;2024-03-06T00:19:13;23.05;;;16.58;;
55090;SDS011;40985;53.180;5.800;2024-03-06T00:21:38;23.13;;;16.23;;
55090;SDS011;40985;53.180;5.800;2024-03-06T00:24:04;20.02;;;15.88;;
55090;SDS011;40985;53.180;5.800;2024-03-06T00:26:30;20.85;;;14.05;;
55090;SDS011;40985;53.180;5.800;2024-03-06T00:28:56;19.30;;;13.80;;
55090;SDS011;40985;53.180;5.800;2024-03-06T00:31:22;24.77;;;13.68;;
55090;SDS011;40985;53.180;5.800;2024-03-06T00:33:47;17.63;;;12.88;;
55090;SDS011;40985;53.180;5.800;2024-03-06T00:36:13;20.20;;;13.05;;
55090;SDS011;40985;53.180;5.800;2024-03-06T00:38:39;19.33;;;13.23;;
55090;SDS011;40985;53.180;5.800;2024-03-06T00:41:04;21.75;;;12.50;;
55090;SDS011;40985;53.180;5.800;2024-03-06T00:43:30;15.30;;;10.68;;
55090;SDS011;40985;53.180;5.800;2024-03-06T00:45:56;17.35;;;11.73;;
55090;SDS011;40985;53.180;5.800;2024-03-06T00:48:22;15.20;;;11.20;;
55090;SDS011;40985;53.180;5.800;2024-03-06T00:50:47;14.55;;;11.13;;
55090;SDS011;40985;53.180;5.800;2024-03-06T00:53:13;19.92;;;10.95;;
55090;SDS011;40985;53.180;5.800;2024-03-06T00:55:39;19.95;;;11.48;;
55090;SDS011;40985;53.180;5.800;2024-03-06T00:58:04;17.15;;;11.10;;
55090;SDS011;40985;53.180;5.800;2024-03-06T01:00:31;15.45;;;10.10;;
55090;SDS011;40985;53.180;5.800;2024-03-06T01:02:57;17.15;;;12.02;;
55090;SDS011;40985;53.180;5.800;2024-03-06T01:05:23;17.52;;;10.48;;
55090;SDS011;40985;53.180;5.800;2024-03-06T01:07:49;14.95;;;11.13;;
55090;SDS011;40985;53.180;5.800;2024-03-06T01:10:15;18.17;;;11.38;;
55090;SDS011;40985;53.180;5.800;2024-03-06T01:12:40;20.38;;;10.98;;
55090;SDS011;40985;53.180;5.800;2024-03-06T01:15:10;20.52;;;10.93;;
55090;SDS011;40985;53.180;5.800;2024-03-06T01:17:36;12.73;;;9.73;;
55090;SDS011;40985;53.180;5.800;2024-03-06T01:20:02;13.88;;;10.52;;
55090;SDS011;40985;53.180;5.800;2024-03-06T01:22:31;15.85;;;10.73;;
55090;SDS011;40985;53.180;5.800;2024-03-06T01:24:58;16.92;;;10.07;;
55090;SDS011;40985;53.180;5.800;2024-03-06T01:27:24;20.27;;;10.65;;
55090;SDS011;40985;53.180;5.800;2024-03-06T01:29:50;17.42;;;10.52;;
55090;SDS011;40985;53.180;5.800;2024-03-06T01:32:16;11.98;;;9.27;;
55090;SDS011;40985;53.180;5.800;2024-03-06T01:34:41;17.67;;;10.45;;
55090;SDS011;40985;53.180;5.800;2024-03-06T01:37:07;15.73;;;10.45;;
55090;SDS011;40985;53.180;5.800;2024-03-06T01:39:33;16.92;;;10.93;;
55090;SDS011;40985;53.180;5.800;2024-03-06T01:42:00;17.13;;;10.73;;
55090;SDS011;40985;53.180;5.800;2024-03-06T01:44:26;16.73;;;10.63;;
55090;SDS011;40985;53.180;5.800;2024-03-06T01:46:52;17.25;;;10.27;;
55090;SDS011;40985;53.180;5.800;2024-03-06T01:49:19;12.35;;;9.85;;
55090;SDS011;40985;53.180;5.800;2024-03-06T01:51:48;15.82;;;10.40;;
55090;SDS011;40985;53.180;5.800;2024-03-06T01:54:18;14.15;;;10.05;;
55090;SDS011;40985;53.180;5.800;2024-03-06T01:56:45;18.58;;;10.70;;
55090;SDS011;40985;53.180;5.800;2024-03-06T01:59:12;15.00;;;10.23;;
55090;SDS011;40985;53.180;5.800;2024-03-06T02:01:39;16.73;;;10.13;;
55090;SDS011;40985;53.180;5.800;2024-03-06T02:04:05;14.30;;;10.50;;
55090;SDS011;40985;53.180;5.800;2024-03-06T02:06:34;18.88;;;11.55;;
55090;SDS011;40985;53.180;5.800;2024-03-06T02:09:01;14.75;;;10.15;;
55090;SDS011;40985;53.180;5.800;2024-03-06T02:11:28;20.63;;;11.15;;
55090;SDS011;40985;53.180;5.800;2024-03-06T02:13:54;16.85;;;11.80;;
55090;SDS011;40985;53.180;5.800;2024-03-06T02:16:20;14.75;;;9.68;;
55090;SDS011;40985;53.180;5.800;2024-03-06T02:18:55;13.73;;;9.52;;
55090;SDS011;40985;53.180;5.800;2024-03-06T02:21:22;18.10;;;9.93;;
55090;SDS011;40985;53.180;5.800;2024-03-06T02:23:49;20.92;;;9.63;;
55090;SDS011;40985;53.180;5.800;2024-03-06T02:26:19;17.40;;;9.95;;
55090;SDS011;40985;53.180;5.800;2024-03-06T02:28:49;13.65;;;9.60;;
55090;SDS011;40985;53.180;5.800;2024-03-06T02:31:18;13.70;;;9.93;;
55090;SDS011;40985;53.180;5.800;2024-03-06T02:33:45;14.60;;;10.38;;
55090;SDS011;40985;53.180;5.800;2024-03-06T02:36:13;10.88;;;9.38;;
55090;SDS011;40985;53.180;5.800;2024-03-06T02:38:39;13.85;;;9.38;;
55090;SDS011;40985;53.180;5.800;2024-03-06T02:41:05;14.20;;;9.80;;
55090;SDS011;40985;53.180;5.800;2024-03-06T02:43:35;16.10;;;10.30;;
55090;SDS011;40985;53.180;5.800;2024-03-06T02:46:01;15.38;;;10.15;;
55090;SDS011;40985;53.180;5.800;2024-03-06T02:48:27;14.27;;;9.82;;
55090;SDS011;40985;53.180;5.800;2024-03-06T02:50:53;14.82;;;9.77;;
55090;SDS011;40985;53.180;5.800;2024-03-06T02:53:18;15.27;;;10.40;;
55090;SDS011;40985;53.180;5.800;2024-03-06T02:55:44;15.50;;;10.27;;
55090;SDS011;40985;53.180;5.800;2024-03-06T02:58:10;13.55;;;10.73;;
55090;SDS011;40985;53.180;5.800;2024-03-06T03:00:35;16.58;;;10.90;;
55090;SDS011;40985;53.180;5.800;2024-03-06T03:03:01;22.55;;;11.20;;
55090;SDS011;40985;53.180;5.800;2024-03-06T03:05:27;16.58;;;10.65;;
55090;SDS011;40985;53.180;5.800;2024-03-06T03:07:53;14.02;;;10.27;;
55090;SDS011;40985;53.180;5.800;2024-03-06T03:10:20;16.02;;;11.35;;
55090;SDS011;40985;53.180;5.800;2024-03-06T03:12:45;15.88;;;10.32;;
55090;SDS011;40985;53.180;5.800;2024-03-06T03:15:11;11.18;;;9.40;;
55090;SDS011;40985;53.180;5.800;2024-03-06T03:17:37;19.38;;;10.00;;
55090;SDS011;40985;53.180;5.800;2024-03-06T03:20:03;16.27;;;10.52;;
55090;SDS011;40985;53.180;5.800;2024-03-06T03:22:40;17.65;;;9.52;;
55090;SDS011;40985;53.180;5.800;2024-03-06T03:25:09;15.00;;;9.65;;
55090;SDS011;40985;53.180;5.800;2024-03-06T03:27:40;15.80;;;10.15;;
55090;SDS011;40985;53.180;5.800;2024-03-06T03:30:09;14.93;;;9.90;;
55090;SDS011;40985;53.180;5.800;2024-03-06T03:32:35;14.10;;;9.45;;
55090;SDS011;40985;53.180;5.800;2024-03-06T03:35:01;17.75;;;10.80;;
55090;SDS011;40985;53.180;5.800;2024-03-06T03:37:28;14.25;;;9.98;;
55090;SDS011;40985;53.180;5.800;2024-03-06T03:39:54;17.33;;;10.00;;
55090;SDS011;40985;53.180;5.800;2024-03-06T03:42:20;14.73;;;10.05;;
55090;SDS011;40985;53.180;5.800;2024-03-06T03:44:45;14.13;;;9.75;;
55090;SDS011;40985;53.180;5.800;2024-03-06T03:47:11;19.75;;;9.82;;
55090;SDS011;40985;53.180;5.800;2024-03-06T03:49:37;16.05;;;10.48;;
55090;SDS011;40985;53.180;5.800;2024-03-06T03:52:03;17.08;;;10.50;;
55090;SDS011;40985;53.180;5.800;2024-03-06T03:54:29;16.23;;;10.50;;
55090;SDS011;40985;53.180;5.800;2024-03-06T03:56:55;17.02;;;11.05;;
55090;SDS011;40985;53.180;5.800;2024-03-06T03:59:20;15.73;;;11.00;;
55090;SDS011;40985;53.180;5.800;2024-03-06T04:01:46;13.05;;;10.15;;
55090;SDS011;40985;53.180;5.800;2024-03-06T04:04:12;12.77;;;9.48;;
55090;SDS011;40985;53.180;5.800;2024-03-06T04:06:38;15.35;;;10.43;;
55090;SDS011;40985;53.180;5.800;2024-03-06T04:09:04;13.63;;;10.63;;
55090;SDS011;40985;53.180;5.800;2024-03-06T04:11:30;17.45;;;10.77;;
55090;SDS011;40985;53.180;5.800;2024-03-06T04:13:59;13.88;;;10.45;;
55090;SDS011;40985;53.180;5.800;2024-03-06T04:16:24;16.95;;;11.35;;
55090;SDS011;40985;53.180;5.800;2024-03-06T04:18:51;16.60;;;11.07;;
55090;SDS011;40985;53.180;5.800;2024-03-06T04:21:16;17.20;;;10.98;;
55090;SDS011;40985;53.180;5.800;2024-03-06T04:23:43;19.58;;;11.32;;
55090;SDS011;40985;53.180;5.800;2024-03-06T04:26:09;15.25;;;11.07;;
55090;SDS011;40985;53.180;5.800;2024-03-06T04:28:34;14.35;;;10.77;;
55090;SDS011;40985;53.180;5.800;2024-03-06T04:31:00;16.23;;;10.70;;
55090;SDS011;40985;53.180;5.800;2024-03-06T04:33:25;15.10;;;10.45;;
55090;SDS011;40985;53.180;5.800;2024-03-06T04:35:51;17.88;;;10.68;;
55090;SDS011;40985;53.180;5.800;2024-03-06T04:38:17;23.50;;;11.95;;
55090;SDS011;40985;53.180;5.800;2024-03-06T04:40:43;17.95;;;11.60;;
55090;SDS011;40985;53.180;5.800;2024-03-06T04:43:10;15.27;;;10.98;;
55090;SDS011;40985;53.180;5.800;2024-03-06T04:45:35;17.92;;;10.73;;
55090;SDS011;40985;53.180;5.800;2024-03-06T04:48:01;16.77;;;11.13;;
55090;SDS011;40985;53.180;5.800;2024-03-06T04:50:27;16.15;;;10.57;;
55090;SDS011;40985;53.180;5.800;2024-03-06T04:52:53;14.45;;;10.82;;
55090;SDS011;40985;53.180;5.800;2024-03-06T04:55:18;18.92;;;12.93;;
55090;SDS011;40985;53.180;5.800;2024-03-06T04:57:47;17.23;;;10.85;;
55090;SDS011;40985;53.180;5.800;2024-03-06T05:00:13;19.63;;;11.55;;
55090;SDS011;40985;53.180;5.800;2024-03-06T05:02:39;15.32;;;10.95;;
55090;SDS011;40985;53.180;5.800;2024-03-06T05:05:07;14.45;;;10.80;;
55090;SDS011;40985;53.180;5.800;2024-03-06T05:07:33;15.15;;;10.68;;
55090;SDS011;40985;53.180;5.800;2024-03-06T05:09:59;18.95;;;12.15;;
55090;SDS011;40985;53.180;5.800;2024-03-06T05:12:26;19.33;;;11.80;;
55090;SDS011;40985;53.180;5.800;2024-03-06T05:14:52;16.80;;;11.95;;
55090;SDS011;40985;53.180;5.800;2024-03-06T05:17:18;18.13;;;11.48;;
55090;SDS011;40985;53.180;5.800;2024-03-06T05:19:45;18.88;;;11.75;;
55090;SDS011;40985;53.180;5.800;2024-03-06T05:22:12;18.40;;;11.73;;
55090;SDS011;40985;53.180;5.800;2024-03-06T05:24:39;18.20;;;12.38;;
55090;SDS011;40985;53.180;5.800;2024-03-06T05:27:05;15.98;;;11.93;;
55090;SDS011;40985;53.180;5.800;2024-03-06T05:29:31;18.30;;;12.23;;
55090;SDS011;40985;53.180;5.800;2024-03-06T05:31:58;17.00;;;11.95;;
55090;SDS011;40985;53.180;5.800;2024-03-06T05:34:23;20.60;;;11.98;;
55090;SDS011;40985;53.180;5.800;2024-03-06T05:36:49;20.50;;;12.65;;
55090;SDS011;40985;53.180;5.800;2024-03-06T05:39:15;19.00;;;12.20;;
55090;SDS011;40985;53.180;5.800;2024-03-06T05:41:43;21.80;;;14.02;;
55090;SDS011;40985;53.180;5.800;2024-03-06T05:44:10;21.77;;;12.25;;
55090;SDS011;40985;53.180;5.800;2024-03-06T05:46:36;16.73;;;12.88;;
55090;SDS011;40985;53.180;5.800;2024-03-06T05:49:02;17.17;;;12.15;;
55090;SDS011;40985;53.180;5.800;2024-03-06T05:51:28;21.60;;;11.95;;
55090;SDS011;40985;53.180;5.800;2024-03-06T05:53:54;20.55;;;12.63;;
55090;SDS011;40985;53.180;5.800;2024-03-06T05:56:19;19.42;;;13.10;;
55090;SDS011;40985;53.180;5.800;2024-03-06T05:58:45;23.13;;;12.93;;
55090;SDS011;40985;53.180;5.800;2024-03-06T06:01:15;21.15;;;13.35;;
55090;SDS011;40985;53.180;5.800;2024-03-06T06:03:45;17.35;;;12.68;;
55090;SDS011;40985;53.180;5.800;2024-03-06T06:06:17;22.38;;;12.68;;
55090;SDS011;40985;53.180;5.800;2024-03-06T06:08:44;29.08;;;13.95;;
55090;SDS011;40985;53.180;5.800;2024-03-06T06:11:10;18.88;;;12.65;;
55090;SDS011;40985;53.180;5.800;2024-03-06T06:13:36;21.90;;;13.40;;
55090;SDS011;40985;53.180;5.800;2024-03-06T06:16:04;26.08;;;14.13;;
55090;SDS011;40985;53.180;5.800;2024-03-06T06:18:30;20.52;;;13.90;;
55090;SDS011;40985;53.180;5.800;2024-03-06T06:20:57;20.92;;;13.52;;
55090;SDS011;40985;53.180;5.800;2024-03-06T06:23:23;24.58;;;13.82;;
55090;SDS011;40985;53.180;5.800;2024-03-06T06:25:49;21.42;;;13.00;;
55090;SDS011;40985;53.180;5.800;2024-03-06T06:28:15;26.98;;;14.63;;
55090;SDS011;40985;53.180;5.800;2024-03-06T06:30:40;22.30;;;14.07;;
55090;SDS011;40985;53.180;5.800;2024-03-06T06:33:06;23.95;;;14.07;;
55090;SDS011;40985;53.180;5.800;2024-03-06T06:35:33;30.30;;;14.73;;
55090;SDS011;40985;53.180;5.800;2024-03-06T06:38:02;25.83;;;14.52;;
55090;SDS011;40985;53.180;5.800;2024-03-06T06:40:29;27.90;;;14.05;;
55090;SDS011;40985;53.180;5.800;2024-03-06T06:42:55;26.73;;;14.70;;
55090;SDS011;40985;53.180;5.800;2024-03-06T06:45:21;25.30;;;14.55;;
55090;SDS011;40985;53.180;5.800;2024-03-06T06:47:47;25.50;;;14.63;;
55090;SDS011;40985;53.180;5.800;2024-03-06T06:50:14;27.00;;;14.75;;
55090;SDS011;40985;53.180;5.800;2024-03-06T06:52:40;23.15;;;14.32;;
55090;SDS011;40985;53.180;5.800;2024-03-06T06:55:07;26.45;;;13.95;;
55090;SDS011;40985;53.180;5.800;2024-03-06T06:57:36;29.73;;;15.07;;
55090;SDS011;40985;53.180;5.800;2024-03-06T07:00:03;21.45;;;14.63;;
55090;SDS011;40985;53.180;5.800;2024-03-06T07:02:39;27.40;;;15.00;;
55090;SDS011;40985;53.180;5.800;2024-03-06T07:05:06;25.05;;;13.68;;
55090;SDS011;40985;53.180;5.800;2024-03-06T07:07:33;27.40;;;15.65;;
55090;SDS011;40985;53.180;5.800;2024-03-06T07:09:59;25.52;;;14.95;;
55090;SDS011;40985;53.180;5.800;2024-03-06T07:12:24;25.10;;;15.40;;
55090;SDS011;40985;53.180;5.800;2024-03-06T07:14:50;28.00;;;15.35;;
55090;SDS011;40985;53.180;5.800;2024-03-06T07:17:16;26.90;;;14.88;;
55090;SDS011;40985;53.180;5.800;2024-03-06T07:19:42;26.38;;;15.10;;
55090;SDS011;40985;53.180;5.800;2024-03-06T07:22:07;27.80;;;16.02;;
55090;SDS011;40985;53.180;5.800;2024-03-06T07:24:33;21.48;;;14.63;;
55090;SDS011;40985;53.180;5.800;2024-03-06T07:26:59;27.73;;;15.10;;
55090;SDS011;40985;53.180;5.800;2024-03-06T07:29:26;24.88;;;15.02;;
55090;SDS011;40985;53.180;5.800;2024-03-06T07:31:53;30.17;;;16.63;;
55090;SDS011;40985;53.180;5.800;2024-03-06T07:34:19;28.38;;;16.40;;
55090;SDS011;40985;53.180;5.800;2024-03-06T07:36:46;25.17;;;16.40;;
55090;SDS011;40985;53.180;5.800;2024-03-06T07:39:15;27.58;;;15.90;;
55090;SDS011;40985;53.180;5.800;2024-03-06T07:41:41;36.72;;;19.80;;
55090;SDS011;40985;53.180;5.800;2024-03-06T07:44:07;27.80;;;16.13;;
55090;SDS011;40985;53.180;5.800;2024-03-06T07:46:34;27.73;;;15.90;;
55090;SDS011;40985;53.180;5.800;2024-03-06T07:49:00;27.55;;;15.23;;
55090;SDS011;40985;53.180;5.800;2024-03-06T07:51:28;25.35;;;15.32;;
55090;SDS011;40985;53.180;5.800;2024-03-06T07:54:03;23.08;;;15.32;;
55090;SDS011;40985;53.180;5.800;2024-03-06T07:56:31;24.05;;;14.93;;
55090;SDS011;40985;53.180;5.800;2024-03-06T07:58:57;25.27;;;15.63;;
55090;SDS011;40985;53.180;5.800;2024-03-06T08:01:23;27.42;;;16.45;;
55090;SDS011;40985;53.180;5.800;2024-03-06T08:03:49;24.13;;;15.77;;
55090;SDS011;40985;53.180;5.800;2024-03-06T08:06:14;25.58;;;15.60;;
55090;SDS011;40985;53.180;5.800;2024-03-06T08:08:41;24.60;;;16.27;;
55090;SDS011;40985;53.180;5.800;2024-03-06T08:11:09;27.55;;;15.75;;
55090;SDS011;40985;53.180;5.800;2024-03-06T08:13:36;28.00;;;16.45;;
55090;SDS011;40985;53.180;5.800;2024-03-06T08:16:02;26.63;;;16.70;;
55090;SDS011;40985;53.180;5.800;2024-03-06T08:18:29;26.20;;;16.33;;
55090;SDS011;40985;53.180;5.800;2024-03-06T08:20:55;24.25;;;16.17;;
55090;SDS011;40985;53.180;5.800;2024-03-06T08:23:21;24.52;;;16.75;;
55090;SDS011;40985;53.180;5.800;2024-03-06T08:25:48;21.88;;;15.90;;
55090;SDS011;40985;53.180;5.800;2024-03-06T08:28:14;26.10;;;15.82;;
55090;SDS011;40985;53.180;5.800;2024-03-06T08:30:40;26.92;;;15.43;;
55090;SDS011;40985;53.180;5.800;2024-03-06T08:33:06;27.88;;;18.10;;
55090;SDS011;40985;53.180;5.800;2024-03-06T08:35:32;24.23;;;16.33;;
55090;SDS011;40985;53.180;5.800;2024-03-06T08:37:58;29.73;;;17.02;;
55090;SDS011;40985;53.180;5.800;2024-03-06T08:40:23;25.45;;;16.20;;
55090;SDS011;40985;53.180;5.800;2024-03-06T08:42:50;31.00;;;16.88;;
55090;SDS011;40985;53.180;5.800;2024-03-06T08:45:16;28.88;;;16.60;;
55090;SDS011;40985;53.180;5.800;2024-03-06T08:47:45;28.10;;;15.82;;
55090;SDS011;40985;53.180;5.800;2024-03-06T08:50:12;30.35;;;17.05;;
55090;SDS011;40985;53.180;5.800;2024-03-06T08:52:39;29.27;;;17.48;;
55090;SDS011;40985;53.180;5.800;2024-03-06T08:55:06;29.55;;;17.08;;
55090;SDS011;40985;53.180;5.800;2024-03-06T08:57:33;30.70;;;17.27;;
55090;SDS011;40985;53.180;5.800;2024-03-06T08:59:59;26.05;;;15.93;;
55090;SDS011;40985;53.180;5.800;2024-03-06T09:02:25;23.88;;;15.85;;
55090;SDS011;40985;53.180;5.800;2024-03-06T09:04:52;25.52;;;16.52;;
55090;SDS011;40985;53.180;5.800;2024-03-06T09:07:18;30.02;;;16.70;;
55090;SDS011;40985;53.180;5.800;2024-03-06T09:09:44;29.42;;;17.92;;
55090;SDS011;40985;53.180;5.800;2024-03-06T09:12:10;35.17;;;16.83;;
55090;SDS011;40985;53.180;5.800;2024-03-06T09:14:37;32.15;;;16.30;;
55090;SDS011;40985;53.180;5.800;2024-03-06T09:17:04;30.00;;;18.35;;
55090;SDS011;40985;53.180;5.800;2024-03-06T09:19:31;26.92;;;16.70;;
55090;SDS011;40985;53.180;5.800;2024-03-06T09:21:57;26.60;;;15.98;;
55090;SDS011;40985;53.180;5.800;2024-03-06T09:24:24;31.75;;;17.20;;
55090;SDS011;40985;53.180;5.800;2024-03-06T09:26:51;34.13;;;17.52;;
55090;SDS011;40985;53.180;5.800;2024-03-06T09:29:17;32.00;;;17.95;;
55090;SDS011;40985;53.180;5.800;2024-03-06T09:31:43;29.65;;;17.15;;
55090;SDS011;40985;53.180;5.800;2024-03-06T09:34:09;30.85;;;18.27;;
55090;SDS011;40985;53.180;5.800;2024-03-06T09:36:37;32.92;;;17.85;;
55090;SDS011;40985;53.180;5.800;2024-03-06T09:39:04;34.75;;;17.60;;
55090;SDS011;40985;53.180;5.800;2024-03-06T09:41:30;35.92;;;18.55;;
55090;SDS011;40985;53.180;5.800;2024-03-06T09:43:56;33.50;;;18.58;;
55090;SDS011;40985;53.180;5.800;2024-03-06T09:46:23;32.90;;;18.23;;
55090;SDS011;40985;53.180;5.800;2024-03-06T09:48:50;37.67;;;17.70;;
55090;SDS011;40985;53.180;5.800;2024-03-06T09:51:16;34.63;;;18.15;;
55090;SDS011;40985;53.180;5.800;2024-03-06T09:53:42;34.92;;;18.50;;
55090;SDS011;40985;53.180;5.800;2024-03-06T09:56:08;34.08;;;18.25;;
55090;SDS011;40985;53.180;5.800;2024-03-06T09:58:37;37.35;;;19.67;;
55090;SDS011;40985;53.180;5.800;2024-03-06T10:01:03;34.22;;;17.27;;
55090;SDS011;40985;53.180;5.800;2024-03-06T10:03:32;38.05;;;19.33;;
55090;SDS011;40985;53.180;5.800;2024-03-06T10:05:59;37.13;;;18.42;;
55090;SDS011;40985;53.180;5.800;2024-03-06T10:08:25;38.00;;;18.35;;
55090;SDS011;40985;53.180;5.800;2024-03-06T10:10:51;35.95;;;19.33;;
55090;SDS011;40985;53.180;5.800;2024-03-06T10:13:18;35.30;;;18.65;;
55090;SDS011;40985;53.180;5.800;2024-03-06T10:16:00;42.03;;;20.65;;
55090;SDS011;40985;53.180;5.800;2024-03-06T10:18:29;41.58;;;19.30;;
55090;SDS011;40985;53.180;5.800;2024-03-06T10:20:56;36.33;;;19.77;;
55090;SDS011;40985;53.180;5.800;2024-03-06T10:23:22;36.33;;;19.65;;
55090;SDS011;40985;53.180;5.800;2024-03-06T10:25:48;38.90;;;20.15;;
55090;SDS011;40985;53.180;5.800;2024-03-06T10:28:19;41.25;;;21.08;;
55090;SDS011;40985;53.180;5.800;2024-03-06T10:30:45;36.95;;;20.27;;
55090;SDS011;40985;53.180;5.800;2024-03-06T10:33:15;37.58;;;18.52;;
55090;SDS011;40985;53.180;5.800;2024-03-06T10:35:44;34.60;;;18.33;;
55090;SDS011;40985;53.180;5.800;2024-03-06T10:38:11;33.97;;;20.25;;
55090;SDS011;40985;53.180;5.800;2024-03-06T10:40:38;42.97;;;21.13;;
55090;SDS011;40985;53.180;5.800;2024-03-06T10:43:05;37.22;;;20.83;;
55090;SDS011;40985;53.180;5.800;2024-03-06T10:48:07;40.13;;;21.38;;
55090;SDS011;40985;53.180;5.800;2024-03-06T10:50:34;40.42;;;20.67;;
55090;SDS011;40985;53.180;5.800;2024-03-06T10:53:02;39.55;;;22.00;;
55090;SDS011;40985;53.180;5.800;2024-03-06T10:55:29;38.80;;;21.80;;
55090;SDS011;40985;53.180;5.800;2024-03-06T10:57:59;39.70;;;21.67;;
55090;SDS011;40985;53.180;5.800;2024-03-06T11:00:25;37.35;;;19.77;;
55090;SDS011;40985;53.180;5.800;2024-03-06T11:02:53;40.95;;;22.88;;
55090;SDS011;40985;53.180;5.800;2024-03-06T11:05:20;40.85;;;20.60;;
55090;SDS011;40985;53.180;5.800;2024-03-06T11:07:46;39.47;;;21.63;;
55090;SDS011;40985;53.180;5.800;2024-03-06T11:10:12;39.03;;;21.77;;
55090;SDS011;40985;53.180;5.800;2024-03-06T11:12:41;37.17;;;20.45;;
55090;SDS011;40985;53.180;5.800;2024-03-06T11:15:13;41.25;;;21.25;;
55090;SDS011;40985;53.180;5.800;2024-03-06T11:17:40;38.50;;;20.52;;
55090;SDS011;40985;53.180;5.800;2024-03-06T11:20:13;36.45;;;19.85;;
55090;SDS011;40985;53.180;5.800;2024-03-06T11:28:19;35.15;;;20.45;;
55090;SDS011;40985;53.180;5.800;2024-03-06T11:31:02;36.75;;;20.13;;
55090;SDS011;40985;53.180;5.800;2024-03-06T11:39:05;35.97;;;20.02;;
55090;SDS011;40985;53.180;5.800;2024-03-06T11:41:46;38.65;;;20.48;;
55090;SDS011;40985;53.180;5.800;2024-03-06T11:44:14;36.38;;;20.52;;
55090;SDS011;40985;53.180;5.800;2024-03-06T11:49:23;35.67;;;20.15;;
55090;SDS011;40985;53.180;5.800;2024-03-06T11:51:50;39.88;;;20.33;;
55090;SDS011;40985;53.180;5.800;2024-03-06T11:54:20;38.10;;;20.85;;
55090;SDS011;40985;53.180;5.800;2024-03-06T11:56:51;41.88;;;21.13;;
55090;SDS011;40985;53.180;5.800;2024-03-06T11:59:24;35.42;;;19.98;;
55090;SDS011;40985;53.180;5.800;2024-03-06T12:01:58;37.88;;;21.05;;
55090;SDS011;40985;53.180;5.800;2024-03-06T12:04:26;35.83;;;20.35;;
55090;SDS011;40985;53.180;5.800;2024-03-06T12:06:56;37.88;;;20.83;;
55090;SDS011;40985;53.180;5.800;2024-03-06T12:09:23;41.90;;;21.02;;
55090;SDS011;40985;53.180;5.800;2024-03-06T12:11:48;37.65;;;20.80;;
55090;SDS011;40985;53.180;5.800;2024-03-06T12:14:14;40.08;;;21.48;;
55090;SDS011;40985;53.180;5.800;2024-03-06T12:16:53;37.97;;;21.38;;
55090;SDS011;40985;53.180;5.800;2024-03-06T12:19:25;41.65;;;22.10;;
55090;SDS011;40985;53.180;5.800;2024-03-06T12:21:52;38.53;;;21.08;;
55090;SDS011;40985;53.180;5.800;2024-03-06T12:24:19;44.65;;;24.42;;
55090;SDS011;40985;53.180;5.800;2024-03-06T12:26:45;36.60;;;22.33;;
55090;SDS011;40985;53.180;5.800;2024-03-06T12:29:16;36.72;;;21.90;;
55090;SDS011;40985;53.180;5.800;2024-03-06T12:31:44;36.30;;;21.35;;
55090;SDS011;40985;53.180;5.800;2024-03-06T12:34:13;42.83;;;21.85;;
55090;SDS011;40985;53.180;5.800;2024-03-06T12:36:42;33.28;;;20.23;;
55090;SDS011;40985;53.180;5.800;2024-03-06T12:39:08;43.70;;;22.23;;
55090;SDS011;40985;53.180;5.800;2024-03-06T12:41:40;41.67;;;21.60;;
55090;SDS011;40985;53.180;5.800;2024-03-06T12:44:06;36.83;;;20.63;;
55090;SDS011;40985;53.180;5.800;2024-03-06T12:46:32;38.83;;;21.45;;
55090;SDS011;40985;53.180;5.800;2024-03-06T12:48:58;38.30;;;22.58;;
55090;SDS011;40985;53.180;5.800;2024-03-06T12:51:24;37.30;;;21.40;;
55090;SDS011;40985;53.180;5.800;2024-03-06T12:53:50;40.97;;;22.08;;
55090;SDS011;40985;53.180;5.800;2024-03-06T12:56:16;38.17;;;22.40;;
55090;SDS011;40985;53.180;5.800;2024-03-06T12:58:42;34.58;;;21.77;;
55090;SDS011;40985;53.180;5.800;2024-03-06T13:01:09;40.53;;;22.23;;
55090;SDS011;40985;53.180;5.800;2024-03-06T13:03:35;39.80;;;21.52;;
55090;SDS011;40985;53.180;5.800;2024-03-06T13:06:02;39.55;;;22.55;;
55090;SDS011;40985;53.180;5.800;2024-03-06T13:08:29;36.25;;;21.88;;
55090;SDS011;40985;53.180;5.800;2024-03-06T13:10:55;37.30;;;20.95;;
55090;SDS011;40985;53.180;5.800;2024-03-06T13:13:21;40.53;;;22.67;;
55090;SDS011;40985;53.180;5.800;2024-03-06T13:15:49;38.88;;;21.85;;
55090;SDS011;40985;53.180;5.800;2024-03-06T13:18:15;32.60;;;20.98;;
55090;SDS011;40985;53.180;5.800;2024-03-06T13:20:41;39.47;;;23.05;;
55090;SDS011;40985;53.180;5.800;2024-03-06T13:23:07;42.08;;;23.30;;
55090;SDS011;40985;53.180;5.800;2024-03-06T13:25:33;44.47;;;24.05;;
55090;SDS011;40985;53.180;5.800;2024-03-06T13:27:59;47.38;;;24.80;;
55090;SDS011;40985;53.180;5.800;2024-03-06T13:30:25;43.20;;;24.80;;
55090;SDS011;40985;53.180;5.800;2024-03-06T13:32:51;43.95;;;24.38;;
55090;SDS011;40985;53.180;5.800;2024-03-06T13:35:16;45.15;;;25.00;;
55090;SDS011;40985;53.180;5.800;2024-03-06T13:37:43;43.67;;;24.88;;
55090;SDS011;40985;53.180;5.800;2024-03-06T13:40:09;43.55;;;27.08;;
55090;SDS011;40985;53.180;5.800;2024-03-06T13:42:38;41.85;;;24.42;;
55090;SDS011;40985;53.180;5.800;2024-03-06T13:45:05;44.58;;;26.50;;
55090;SDS011;40985;53.180;5.800;2024-03-06T13:47:37;46.70;;;25.38;;
55090;SDS011;40985;53.180;5.800;2024-03-06T13:50:13;45.55;;;26.38;;
55090;SDS011;40985;53.180;5.800;2024-03-06T13:52:40;47.05;;;25.38;;
55090;SDS011;40985;53.180;5.800;2024-03-06T13:55:06;44.17;;;26.45;;
55090;SDS011;40985;53.180;5.800;2024-03-06T13:57:33;45.42;;;25.02;;
55090;SDS011;40985;53.180;5.800;2024-03-06T14:00:03;43.53;;;24.45;;
55090;SDS011;40985;53.180;5.800;2024-03-06T14:02:31;45.63;;;26.27;;
55090;SDS011;40985;53.180;5.800;2024-03-06T14:04:57;52.20;;;28.52;;
55090;SDS011;40985;53.180;5.800;2024-03-06T14:07:23;52.75;;;28.00;;
55090;SDS011;40985;53.180;5.800;2024-03-06T14:09:50;46.55;;;27.60;;
55090;SDS011;40985;53.180;5.800;2024-03-06T14:12:16;49.58;;;28.90;;
55090;SDS011;40985;53.180;5.800;2024-03-06T14:14:42;47.30;;;26.20;;
55090;SDS011;40985;53.180;5.800;2024-03-06T14:17:08;48.00;;;26.92;;
55090;SDS011;40985;53.180;5.800;2024-03-06T14:19:34;49.47;;;25.48;;
55090;SDS011;40985;53.180;5.800;2024-03-06T14:21:59;48.95;;;25.20;;
55090;SDS011;40985;53.180;5.800;2024-03-06T14:24:25;44.63;;;25.45;;
55090;SDS011;40985;53.180;5.800;2024-03-06T14:26:51;43.53;;;25.25;;
55090;SDS011;40985;53.180;5.800;2024-03-06T14:29:17;45.78;;;26.25;;
55090;SDS011;40985;53.180;5.800;2024-03-06T14:31:42;45.40;;;26.48;;
55090;SDS011;40985;53.180;5.800;2024-03-06T14:34:08;48.63;;;27.98;;
55090;SDS011;40985;53.180;5.800;2024-03-06T14:36:35;46.42;;;26.58;;
55090;SDS011;40985;53.180;5.800;2024-03-06T14:39:01;48.15;;;26.95;;